createdAt,value
2023-03-23T15:58:46.800Z,51.14
2023-03-23T16:01:21.266Z,50.97
2023-03-23T16:03:51.836Z,51.26
2023-03-23T16:06:25.350Z,51.34
2023-03-23T16:08:55.228Z,52.16
2023-03-23T16:11:24.915Z,51.36
2023-03-23T16:13:52.286Z,51.46
2023-03-23T16:16:22.910Z,53.22
2023-03-23T16:18:50.791Z,53.01
2023-03-23T16:21:18.148Z,52.07
2023-03-23T16:23:46.480Z,52.42
2023-03-23T16:26:14.609Z,52.44
2023-03-23T16:28:43.221Z,52.51
2023-03-23T16:31:10.842Z,50.88
2023-03-23T16:33:38.155Z,51.26
2023-03-23T16:36:06.531Z,50.72
2023-03-23T16:38:49.085Z,50.84
2023-03-23T16:41:18.370Z,50.88
2023-03-23T16:43:45.882Z,50.54
2023-03-23T16:46:14.913Z,50.37
2023-03-23T16:48:43.070Z,50.34
2023-03-23T16:51:10.348Z,50.81
2023-03-23T16:53:37.791Z,50.53
2023-03-23T16:56:05.575Z,50.22
2023-03-23T16:58:33.238Z,51.24
2023-03-23T17:01:02.137Z,51.73
2023-03-23T17:03:30.051Z,51.76
2023-03-23T17:05:59.756Z,52.60
2023-03-23T17:08:30.436Z,52.21
2023-03-23T17:10:58.829Z,52.70
2023-03-23T17:13:28.155Z,52.71
2023-03-23T17:15:57.260Z,53.14
2023-03-23T17:18:25.057Z,53.50
2023-03-23T17:20:54.153Z,54.17
2023-03-23T17:23:21.716Z,53.76
2023-03-23T17:25:49.299Z,54.05
2023-03-23T17:28:19.457Z,54.35
2023-03-23T17:30:48.504Z,54.32
2023-03-23T17:33:15.954Z,54.69
2023-03-23T17:35:46.113Z,54.94
2023-03-23T17:38:13.549Z,54.78
2023-03-23T17:40:40.846Z,54.81
2023-03-23T17:43:08.317Z,55.62
2023-03-23T17:45:36.675Z,55.08
2023-03-23T17:48:07.711Z,54.90
2023-03-23T17:50:36.848Z,55.32
2023-03-23T17:53:04.593Z,56.25
2023-03-23T17:55:31.970Z,56.08
2023-03-23T17:57:59.214Z,56.07
2023-03-23T18:00:26.592Z,55.98
2023-03-23T18:02:53.879Z,55.77
2023-03-23T18:05:21.340Z,55.83
2023-03-23T18:07:48.749Z,56.74
2023-03-23T18:10:16.599Z,57.44
2023-03-23T18:12:44.138Z,57.28
2023-03-23T18:15:12.303Z,57.64
2023-03-23T18:17:40.217Z,57.77
2023-03-23T18:20:09.508Z,58.37
2023-03-23T18:22:36.950Z,58.87
2023-03-23T18:25:05.241Z,59.24
2023-03-23T18:27:33.223Z,58.84
2023-03-23T18:30:00.727Z,59.15
2023-03-23T18:32:28.158Z,59.23
2023-03-23T18:34:56.078Z,58.86
2023-03-23T18:37:23.336Z,58.82
2023-03-23T18:39:52.872Z,58.79
2023-03-23T18:42:21.104Z,58.66
2023-03-23T18:44:48.365Z,59.51
2023-03-23T18:47:15.674Z,59.36
2023-03-23T18:49:43.009Z,59.35
2023-03-23T18:52:10.748Z,59.19
2023-03-23T18:54:40.407Z,59.28
2023-03-23T18:57:07.790Z,58.80
2023-03-23T18:59:35.917Z,59.10
2023-03-23T19:02:05.582Z,59.23
2023-03-23T19:04:33.163Z,58.90
2023-03-23T19:07:03.934Z,59.96
2023-03-23T19:09:33.028Z,59.98
2023-03-23T19:12:00.833Z,60.34
2023-03-23T19:14:28.146Z,60.63
2023-03-23T19:16:55.647Z,60.49
2023-03-23T19:19:24.832Z,61.01
2023-03-23T19:24:20.824Z,62.40
2023-03-23T19:26:48.754Z,62.58
2023-03-23T19:29:26.689Z,63.99
2023-03-23T19:31:55.880Z,63.15
2023-03-23T19:34:24.450Z,64.44
2023-03-23T19:36:56.469Z,65.48
2023-03-23T19:39:32.181Z,67.14
2023-03-23T19:41:59.651Z,66.33
2023-03-23T19:44:28.704Z,66.53
2023-03-23T19:46:56.667Z,66.62
2023-03-23T19:49:24.982Z,68.60
2023-03-23T19:52:08.014Z,69.67
2023-03-23T19:54:39.006Z,69.73
2023-03-23T19:57:06.976Z,69.36
2023-03-23T19:59:35.775Z,69.20
2023-03-23T20:02:03.849Z,70.00
2023-03-23T20:04:31.247Z,70.47
2023-03-23T20:07:00.157Z,70.50
2023-03-23T20:09:28.549Z,70.80
2023-03-23T20:11:59.060Z,71.24
2023-03-23T20:14:26.587Z,71.18
2023-03-23T20:16:53.959Z,71.62
2023-03-23T20:19:21.472Z,71.92
2023-03-23T20:21:48.876Z,71.55
2023-03-23T20:24:16.512Z,71.14
2023-03-23T20:26:44.737Z,71.04
2023-03-23T20:29:12.037Z,70.31
2023-03-23T20:31:41.555Z,70.42
2023-03-23T20:34:11.465Z,70.47
2023-03-23T20:36:42.481Z,70.78
2023-03-23T20:39:15.301Z,70.28
2023-03-23T20:41:44.381Z,69.98
2023-03-23T20:44:16.149Z,70.12
2023-03-23T20:46:48.208Z,70.49
2023-03-23T20:49:16.280Z,69.91
2023-03-23T20:51:44.870Z,69.32
2023-03-23T20:54:15.610Z,69.16
2023-03-23T20:56:44.002Z,69.26
2023-03-23T20:59:12.476Z,70.14
2023-03-23T21:01:40.438Z,70.11
2023-03-23T21:04:14.946Z,70.34
2023-03-23T21:06:44.131Z,70.18
2023-03-23T21:09:12.626Z,69.77
2023-03-23T21:11:39.978Z,69.37
2023-03-23T21:14:07.618Z,69.29
2023-03-23T21:16:35.404Z,68.82
2023-03-23T21:19:03.591Z,69.19
2023-03-23T21:21:33.183Z,69.17
2023-03-23T21:24:02.568Z,69.32
2023-03-23T21:26:30.577Z,68.94
2023-03-23T21:29:00.691Z,68.88
2023-03-23T21:31:33.718Z,69.13
2023-03-23T21:34:01.942Z,69.20
2023-03-23T21:36:29.413Z,68.99
2023-03-23T21:38:56.963Z,69.08
2023-03-23T21:41:24.960Z,69.61
2023-03-23T21:43:54.169Z,69.44
2023-03-23T21:46:21.753Z,70.32
2023-03-23T21:48:51.586Z,70.99
2023-03-23T21:51:25.022Z,70.52
2023-03-23T21:53:56.812Z,70.06
2023-03-23T21:56:26.164Z,70.34
2023-03-23T21:58:53.893Z,69.72
2023-03-23T22:01:21.388Z,70.22
2023-03-23T22:03:49.093Z,69.95
2023-03-23T22:06:23.585Z,70.19
2023-03-23T22:08:51.430Z,69.98
2023-03-23T22:11:23.188Z,70.28
2023-03-23T22:13:51.736Z,69.84
2023-03-23T22:16:20.153Z,70.34
2023-03-23T22:18:48.570Z,70.82
2023-03-23T22:21:17.240Z,71.45
2023-03-23T22:23:46.225Z,72.34
2023-03-23T22:26:16.316Z,72.84
2023-03-23T22:28:44.124Z,73.60
2023-03-23T22:31:17.407Z,73.76
2023-03-23T22:33:46.350Z,74.48
2023-03-23T22:36:14.101Z,75.77
2023-03-23T22:38:43.898Z,74.89
2023-03-23T22:41:17.189Z,76.02
2023-03-23T22:43:44.862Z,75.84
2023-03-23T22:46:12.342Z,76.83
2023-03-23T22:48:40.837Z,78.54
2023-03-23T22:51:08.762Z,78.74
2023-03-23T22:53:36.077Z,78.69
2023-03-23T22:56:04.096Z,80.03
2023-03-23T22:58:31.886Z,80.24
2023-03-23T23:01:08.039Z,80.79
2023-03-23T23:03:35.572Z,80.58
2023-03-23T23:06:03.107Z,80.51
2023-03-23T23:08:32.010Z,80.77
2023-03-23T23:11:01.253Z,80.39
2023-03-23T23:13:30.251Z,80.34
2023-03-23T23:16:01.048Z,80.23
2023-03-23T23:18:30.361Z,79.68
2023-03-23T23:20:59.778Z,79.92
2023-03-23T23:23:27.966Z,79.84
2023-03-23T23:25:55.429Z,78.63
2023-03-23T23:28:23.168Z,79.27
2023-03-23T23:30:50.955Z,78.88
2023-03-23T23:33:19.078Z,78.13
2023-03-23T23:35:47.957Z,79.14
2023-03-23T23:38:16.897Z,79.75
2023-03-23T23:40:46.033Z,78.63
2023-03-23T23:43:15.733Z,78.06
2023-03-23T23:45:44.377Z,77.99
2023-03-23T23:48:12.685Z,77.54
2023-03-23T23:50:40.103Z,77.37
2023-03-23T23:53:09.792Z,76.07
2023-03-23T23:55:39.407Z,75.69
2023-03-23T23:58:06.812Z,76.30
